Time;durP1;ratioP1;P1;durP2;ratioP2;P2;SDS_P1;SDS_P2;PMS_P1;PMS_P2;Temp;Humidity;BMP_temperature;BMP_pressure;BME280_temperature;BME280_humidity;BME280_pressure;Samples;Min_cycle;Max_cycle;Signal;HPM_P1;HPM_P2
2022/03/30 00:00:29;;;;;;;20.90;15.60;;;26.20;99.90;;;;;;4145107;28;20162;-66
2022/03/30 00:02:37;;;;;;;20.17;14.82;;;26.00;99.90;;;;;;4153442;28;20059;-67
2022/03/30 00:04:44;;;;;;;21.17;14.75;;;26.10;99.90;;;;;;4161145;28;20059;-66
2022/03/30 00:06:53;;;;;;;23.55;15.40;;;26.20;99.90;;;;;;4161000;28;20053;-67
2022/03/30 00:09:01;;;;;;;22.98;15.15;;;26.20;99.90;;;;;;4161219;28;20053;-66
2022/03/30 00:11:11;;;;;;;18.15;14.00;;;26.20;99.90;;;;;;4161055;28;20084;-68
2022/03/30 00:13:17;;;;;;;22.67;14.65;;;26.20;99.90;;;;;;4161258;28;20049;-67
2022/03/30 00:15:25;;;;;;;21.55;14.82;;;26.20;99.90;;;;;;4161238;28;20041;-67
2022/03/30 00:17:31;;;;;;;25.33;14.57;;;26.20;99.90;;;;;;4161575;28;20041;-67
2022/03/30 00:19:37;;;;;;;18.58;14.02;;;26.10;99.90;;;;;;4150905;28;20443;-67
2022/03/30 00:21:50;;;;;;;20.67;14.23;;;26.30;99.90;;;;;;4160808;28;20049;-67
2022/03/30 00:23:57;;;;;;;21.02;14.27;;;26.40;99.90;;;;;;4160627;28;20603;-67
2022/03/30 00:26:02;;;;;;;19.65;14.43;;;26.40;99.90;;;;;;4160362;28;20069;-67
2022/03/30 00:28:09;;;;;;;18.00;12.93;;;26.50;99.90;;;;;;4160997;28;20045;-68
2022/03/30 00:30:19;;;;;;;20.85;14.40;;;26.30;99.90;;;;;;4160420;28;20049;-66
2022/03/30 00:32:24;;;;;;;19.58;14.57;;;26.40;99.90;;;;;;4161020;28;20037;-67
2022/03/30 00:34:31;;;;;;;18.90;14.63;;;26.40;99.90;;;;;;4159874;28;20045;-67
2022/03/30 00:36:39;;;;;;;22.13;14.48;;;26.40;99.90;;;;;;4160024;28;20061;-67
2022/03/30 00:38:44;;;;;;;23.17;15.45;;;26.50;99.90;;;;;;4161048;28;20060;-67
2022/03/30 00:40:51;;;;;;;25.55;19.02;;;26.50;99.90;;;;;;4160221;28;20053;-67
2022/03/30 00:43:04;;;;;;;23.95;17.40;;;26.40;99.90;;;;;;4161093;28;20115;-67
2022/03/30 00:45:17;;;;;;;21.60;15.13;;;26.40;99.90;;;;;;4160255;28;20041;-67
2022/03/30 00:47:26;;;;;;;19.77;15.20;;;26.40;99.90;;;;;;4160711;28;20100;-67
2022/03/30 00:49:33;;;;;;;22.65;14.57;;;26.40;99.90;;;;;;4161026;28;20057;-67
2022/03/30 00:51:43;;;;;;;23.45;14.23;;;26.40;99.90;;;;;;4161070;28;20059;-67
2022/03/30 00:53:51;;;;;;;18.58;13.35;;;26.30;99.90;;;;;;4160551;28;20065;-67
2022/03/30 00:55:57;;;;;;;19.10;13.35;;;26.40;99.90;;;;;;4160489;28;20099;-67
2022/03/30 00:58:03;;;;;;;18.63;13.00;;;26.40;99.90;;;;;;4160056;28;20509;-67
2022/03/30 01:00:12;;;;;;;17.63;13.63;;;26.40;99.90;;;;;;4159235;28;20072;-67
2022/03/30 01:02:30;;;;;;;21.70;14.75;;;26.50;99.90;;;;;;4160093;28;20136;-67
2022/03/30 01:04:41;;;;;;;16.85;12.88;;;26.40;99.90;;;;;;4160670;28;20049;-67
2022/03/30 01:06:47;;;;;;;19.50;12.43;;;26.40;99.90;;;;;;4160687;28;20107;-67
2022/03/30 01:08:54;;;;;;;19.05;12.10;;;26.40;99.90;;;;;;4160780;28;20470;-66
2022/03/30 01:11:00;;;;;;;14.10;11.32;;;26.40;99.90;;;;;;4159907;28;20061;-66
2022/03/30 01:13:08;;;;;;;18.10;12.45;;;26.50;99.90;;;;;;4142018;28;20140;-66
2022/03/30 01:15:15;;;;;;;17.05;12.10;;;26.50;99.90;;;;;;4141481;28;20054;-66
2022/03/30 01:17:20;;;;;;;19.48;12.52;;;26.40;99.90;;;;;;4142020;28;20060;-66
2022/03/30 01:19:31;;;;;;;18.95;12.40;;;26.50;99.90;;;;;;4141781;28;20058;-66
2022/03/30 01:21:39;;;;;;;19.65;12.75;;;26.50;99.90;;;;;;4141729;28;20053;-67
2022/03/30 01:23:44;;;;;;;22.50;13.00;;;26.50;99.90;;;;;;4142021;28;20061;-67
2022/03/30 01:25:52;;;;;;;18.88;13.10;;;26.60;99.90;;;;;;4141551;28;20052;-67
2022/03/30 01:27:59;;;;;;;18.95;12.25;;;26.60;99.90;;;;;;4142190;28;20045;-67
2022/03/30 01:32:45;;;;;;;18.55;13.25;;;26.70;99.90;;;;;;4125637;28;20055;-67
2022/03/30 01:34:57;;;;;;;17.10;12.93;;;26.70;99.90;;;;;;4125530;28;20515;-67
2022/03/30 01:37:04;;;;;;;16.65;12.60;;;26.70;99.90;;;;;;4138887;28;20421;-67
2022/03/30 01:39:12;;;;;;;17.40;11.82;;;26.60;99.90;;;;;;4141742;28;20069;-67
2022/03/30 01:41:19;;;;;;;17.05;12.38;;;26.60;99.90;;;;;;4108812;28;20078;-68
2022/03/30 01:43:29;;;;;;;16.55;12.70;;;26.60;99.90;;;;;;4126841;28;20058;-67
2022/03/30 01:45:36;;;;;;;15.20;11.55;;;26.80;99.90;;;;;;4144617;28;20092;-66
2022/03/30 01:47:54;;;;;;;18.67;11.45;;;26.80;99.90;;;;;;4160074;28;20056;-67
2022/03/30 01:50:00;;;;;;;14.07;10.85;;;26.90;99.90;;;;;;4160163;28;20113;-66
2022/03/30 01:52:09;;;;;;;14.50;9.93;;;27.00;99.90;;;;;;4159518;28;20049;-68
2022/03/30 01:54:22;;;;;;;12.43;9.68;;;27.10;99.90;;;;;;4160170;28;20148;-66
2022/03/30 01:56:26;;;;;;;13.38;9.52;;;27.10;99.90;;;;;;4159836;28;20052;-66
2022/03/30 01:58:33;;;;;;;13.30;9.50;;;27.20;99.90;;;;;;4159876;28;20136;-69
2022/03/30 02:00:40;;;;;;;14.52;8.77;;;27.20;99.90;;;;;;4160440;28;20041;-67
2022/03/30 02:02:47;;;;;;;11.90;8.43;;;27.20;99.90;;;;;;4143464;28;20054;-68
2022/03/30 02:04:59;;;;;;;12.60;8.32;;;27.20;99.90;;;;;;4143997;28;20053;-69
2022/03/30 02:07:10;;;;;;;12.35;8.27;;;27.20;99.90;;;;;;4153916;28;20060;-69
2022/03/30 02:09:23;;;;;;;10.60;7.63;;;27.20;99.90;;;;;;4144484;28;20107;-69
2022/03/30 02:11:32;;;;;;;10.93;8.02;;;27.10;99.90;;;;;;4151214;28;20431;-69
2022/03/30 02:13:40;;;;;;;10.57;7.60;;;27.10;99.90;;;;;;4163129;28;20061;-68
2022/03/30 02:15:45;;;;;;;11.40;8.07;;;27.20;99.90;;;;;;4163427;28;20694;-69
2022/03/30 02:17:52;;;;;;;9.77;5.78;;;27.20;99.90;;;;;;4162565;28;20136;-68
2022/03/30 02:19:59;;;;;;;8.45;5.07;;;27.30;99.90;;;;;;4163096;28;20088;-68
2022/03/30 02:22:06;;;;;;;6.88;5.38;;;27.30;99.90;;;;;;4162955;28;20680;-68
2022/03/30 02:24:13;;;;;;;5.22;4.40;;;27.40;99.60;;;;;;4163163;28;20097;-68
2022/03/30 02:26:20;;;;;;;6.28;4.00;;;27.30;99.90;;;;;;4161436;28;20063;-68
2022/03/30 02:28:24;;;;;;;4.60;3.45;;;27.20;99.60;;;;;;4161639;28;20108;-68
2022/03/30 02:30:32;;;;;;;4.55;3.05;;;27.20;99.20;;;;;;4151547;28;20053;-68
2022/03/30 02:32:40;;;;;;;5.93;3.35;;;27.20;99.10;;;;;;4157220;28;20053;-68
2022/03/30 02:34:45;;;;;;;3.90;2.88;;;27.30;98.80;;;;;;4162671;28;20459;-68
2022/03/30 02:36:53;;;;;;;4.55;3.47;;;27.50;98.60;;;;;;4162491;28;20124;-68
2022/03/30 02:39:00;;;;;;;5.05;3.33;;;27.60;98.40;;;;;;4162186;28;20112;-69
2022/03/30 02:41:06;;;;;;;6.93;3.47;;;27.80;98.30;;;;;;4162051;28;20046;-69
2022/03/30 02:43:17;;;;;;;5.60;3.20;;;27.80;97.90;;;;;;4160484;28;20077;-68
2022/03/30 02:45:23;;;;;;;6.13;3.78;;;28.00;98.00;;;;;;4162239;28;20118;-67
2022/03/30 02:49:47;;;;;;;7.95;4.25;;;28.00;97.60;;;;;;4151706;28;20045;-68
2022/03/30 02:51:55;;;;;;;6.85;4.50;;;28.20;97.50;;;;;;4161458;28;20734;-68
2022/03/30 02:54:00;;;;;;;5.30;4.18;;;28.30;97.20;;;;;;4161379;28;20060;-67
2022/03/30 02:56:07;;;;;;;6.07;3.95;;;28.30;97.00;;;;;;4160795;28;20053;-67
2022/03/30 02:58:15;;;;;;;6.13;3.90;;;28.40;96.40;;;;;;4161607;28;20053;-66
2022/03/30 03:00:21;;;;;;;10.05;4.35;;;28.40;96.50;;;;;;4160221;28;20041;-67
2022/03/30 03:02:28;;;;;;;7.68;4.40;;;28.50;96.30;;;;;;4161590;28;20097;-67
2022/03/30 03:04:36;;;;;;;7.07;4.15;;;28.70;96.10;;;;;;4161688;28;20124;-67
2022/03/30 03:06:41;;;;;;;6.50;4.15;;;28.70;95.70;;;;;;4161603;28;20049;-67
2022/03/30 03:08:48;;;;;;;6.40;4.25;;;28.80;95.80;;;;;;4161090;28;20079;-67
2022/03/30 03:10:54;;;;;;;5.93;3.88;;;28.80;95.80;;;;;;4161423;28;20068;-68
2022/03/30 03:12:59;;;;;;;6.55;4.10;;;28.70;95.60;;;;;;4161286;28;20156;-67
2022/03/30 03:15:10;;;;;;;5.95;4.65;;;28.70;95.80;;;;;;4161348;28;20135;-67
2022/03/30 03:17:17;;;;;;;5.03;3.47;;;28.70;95.60;;;;;;4161371;28;20052;-67
2022/03/30 03:19:23;;;;;;;5.25;3.53;;;28.70;95.10;;;;;;4161296;28;20507;-67
2022/03/30 03:21:30;;;;;;;6.80;3.80;;;28.70;94.90;;;;;;4159899;28;20053;-67
2022/03/30 03:23:37;;;;;;;5.65;3.80;;;28.70;94.70;;;;;;4161032;28;20046;-68
2022/03/30 03:25:43;;;;;;;8.15;3.92;;;28.70;94.80;;;;;;4161504;28;20073;-67
2022/03/30 03:27:51;;;;;;;4.90;3.60;;;28.70;94.70;;;;;;4161070;28;20084;-67
2022/03/30 03:29:58;;;;;;;9.18;3.53;;;28.80;94.60;;;;;;4143555;28;20614;-68
2022/03/30 03:32:06;;;;;;;4.00;3.30;;;28.90;94.40;;;;;;4142553;28;20100;-67
2022/03/30 03:34:18;;;;;;;5.20;3.10;;;28.80;94.20;;;;;;4142071;28;20077;-67
2022/03/30 03:36:25;;;;;;;4.88;3.50;;;29.00;93.80;;;;;;4142561;28;20046;-67
2022/03/30 03:38:33;;;;;;;7.13;3.85;;;29.20;93.70;;;;;;4142363;28;20046;-68
2022/03/30 03:40:40;;;;;;;5.15;3.70;;;29.30;93.50;;;;;;4142046;28;20058;-67
2022/03/30 03:42:48;;;;;;;5.45;3.40;;;29.40;93.80;;;;;;4141587;28;20133;-67
2022/03/30 03:44:54;;;;;;;3.97;3.38;;;29.50;93.50;;;;;;4142227;28;20053;-67
2022/03/30 03:47:01;;;;;;;5.55;3.60;;;29.70;93.20;;;;;;4141981;28;20045;-67
2022/03/30 03:49:09;;;;;;;5.28;3.38;;;29.80;92.90;;;;;;4141700;28;20445;-67
2022/03/30 03:51:14;;;;;;;4.60;3.40;;;29.70;92.70;;;;;;4141983;28;20058;-67
2022/03/30 03:53:22;;;;;;;7.15;3.38;;;29.90;92.50;;;;;;4141335;28;20053;-67
2022/03/30 03:55:28;;;;;;;5.28;3.17;;;29.90;92.60;;;;;;4142023;28;20576;-67
2022/03/30 03:57:34;;;;;;;3.53;2.90;;;29.80;92.60;;;;;;4142122;28;20053;-67
2022/03/30 03:59:41;;;;;;;4.10;3.28;;;29.80;92.60;;;;;;4141260;28;20053;-67
2022/03/30 04:01:47;;;;;;;4.15;2.67;;;29.90;91.30;;;;;;4156762;28;20099;-67
2022/03/30 04:03:52;;;;;;;3.83;3.00;;;29.90;91.40;;;;;;4158778;28;20057;-67
2022/03/30 04:05:59;;;;;;;4.57;2.90;;;29.80;91.40;;;;;;4160601;28;20631;-67
2022/03/30 04:08:08;;;;;;;3.72;3.00;;;29.90;91.70;;;;;;4160173;28;20107;-67
2022/03/30 04:10:15;;;;;;;4.47;3.20;;;30.00;91.90;;;;;;4160460;28;20833;-67
2022/03/30 04:12:23;;;;;;;5.30;3.15;;;30.00;91.10;;;;;;4161163;28;20488;-67
2022/03/30 04:14:32;;;;;;;5.05;3.35;;;30.00;91.40;;;;;;4159616;28;20899;-67
2022/03/30 04:16:40;;;;;;;4.45;3.10;;;30.20;91.50;;;;;;4160446;28;20045;-67
2022/03/30 04:18:47;;;;;;;7.50;3.00;;;30.10;91.40;;;;;;4160148;28;20053;-66
2022/03/30 04:20:54;;;;;;;3.35;2.35;;;30.00;91.00;;;;;;4160695;28;20040;-67
2022/03/30 04:22:58;;;;;;;5.13;3.25;;;29.90;90.90;;;;;;4160164;28;20077;-67
2022/03/30 04:25:07;;;;;;;3.78;3.30;;;29.90;91.50;;;;;;4159692;28;20385;-67
2022/03/30 04:27:13;;;;;;;3.25;2.75;;;29.90;91.40;;;;;;4159336;28;20054;-67
2022/03/30 04:29:19;;;;;;;3.17;2.80;;;30.00;91.10;;;;;;4160685;28;20085;-67
2022/03/30 04:31:31;;;;;;;4.28;2.95;;;30.20;91.20;;;;;;4161125;28;20049;-67
2022/03/30 04:33:39;;;;;;;5.38;3.50;;;30.40;90.80;;;;;;4160290;28;20080;-67
2022/03/30 04:35:44;;;;;;;3.15;2.80;;;30.50;91.00;;;;;;4161211;28;20053;-67
2022/03/30 04:37:52;;;;;;;4.97;2.90;;;30.40;90.20;;;;;;4160899;28;20056;-67
2022/03/30 04:39:59;;;;;;;5.63;2.70;;;30.40;91.00;;;;;;4160708;28;20057;-67
2022/03/30 04:42:07;;;;;;;7.15;2.90;;;30.50;90.20;;;;;;4160976;28;20053;-67
2022/03/30 04:44:11;;;;;;;3.47;3.10;;;30.50;90.80;;;;;;4160571;28;20060;-67
2022/03/30 04:46:23;;;;;;;4.15;2.95;;;30.40;90.50;;;;;;4161102;28;20128;-67
2022/03/30 04:48:28;;;;;;;3.60;2.83;;;30.50;90.60;;;;;;4161247;28;20051;-67
2022/03/30 04:50:37;;;;;;;3.20;2.90;;;30.50;89.80;;;;;;4161037;28;20080;-67
2022/03/30 04:52:51;;;;;;;7.05;4.00;;;30.30;91.00;;;;;;4127458;28;20085;-67
2022/03/30 04:55:01;;;;;;;6.35;3.22;;;30.20;91.00;;;;;;4160407;28;20133;-67
2022/03/30 04:57:08;;;;;;;7.25;3.92;;;30.30;91.30;;;;;;4160982;28;20419;-67
2022/03/30 04:59:23;;;;;;;4.28;3.35;;;30.20;91.00;;;;;;4160621;28;20053;-67
2022/03/30 05:01:30;;;;;;;6.32;3.45;;;30.10;91.10;;;;;;4160843;28;20494;-67
2022/03/30 05:03:39;;;;;;;4.28;3.47;;;30.20;91.10;;;;;;4161052;28;20057;-67
2022/03/30 05:05:47;;;;;;;5.28;3.35;;;30.20;91.30;;;;;;4160463;28;20056;-67
2022/03/30 05:07:52;;;;;;;5.38;3.38;;;30.40;91.20;;;;;;4160750;28;20127;-68
2022/03/30 05:09:59;;;;;;;4.10;3.58;;;30.40;90.70;;;;;;4159259;28;20065;-67
2022/03/30 05:12:09;;;;;;;5.72;3.60;;;30.30;90.60;;;;;;4161058;28;20077;-67
2022/03/30 05:14:15;;;;;;;3.92;3.53;;;30.20;90.80;;;;;;4160321;28;20084;-67
2022/03/30 05:16:22;;;;;;;3.83;3.42;;;30.30;91.10;;;;;;4160414;28;20488;-67
2022/03/30 05:18:33;;;;;;;5.13;3.70;;;30.50;91.00;;;;;;4160576;28;20075;-68
2022/03/30 05:20:43;;;;;;;6.30;3.80;;;30.50;90.90;;;;;;4160378;28;20042;-67
2022/03/30 05:22:50;;;;;;;4.63;3.65;;;30.60;90.90;;;;;;4160804;28;20057;-67
2022/03/30 05:24:57;;;;;;;4.82;3.90;;;30.50;90.80;;;;;;4160735;28;20056;-67
2022/03/30 05:27:02;;;;;;;4.03;3.58;;;30.50;90.80;;;;;;4160572;28;20057;-67
2022/03/30 05:29:08;;;;;;;4.78;3.88;;;30.60;90.50;;;;;;4155859;28;20049;-68
2022/03/30 05:31:15;;;;;;;4.38;3.33;;;30.60;90.80;;;;;;4154102;28;20116;-67
2022/03/30 05:33:23;;;;;;;6.30;3.70;;;30.70;90.60;;;;;;4183297;28;20052;-67
2022/03/30 05:35:30;;;;;;;4.82;3.47;;;30.70;89.40;;;;;;4160498;28;20107;-67
2022/03/30 05:37:37;;;;;;;4.28;3.42;;;30.70;90.90;;;;;;4161232;28;20041;-67
2022/03/30 05:39:45;;;;;;;5.60;3.47;;;30.70;90.40;;;;;;4159669;28;20089;-67
2022/03/30 05:41:53;;;;;;;3.90;3.55;;;30.70;90.80;;;;;;4161746;28;20732;-67
2022/03/30 05:44:01;;;;;;;5.75;3.88;;;30.70;90.80;;;;;;4161470;28;20428;-67
2022/03/30 05:46:08;;;;;;;4.20;3.72;;;30.50;90.10;;;;;;4164317;28;20057;-66
2022/03/30 05:48:17;;;;;;;4.60;3.80;;;30.50;90.70;;;;;;4162906;28;20466;-68
2022/03/30 05:50:25;;;;;;;6.07;4.07;;;30.60;90.80;;;;;;4145214;28;20054;-67
2022/03/30 05:52:31;;;;;;;6.88;4.13;;;30.80;90.60;;;;;;4164644;28;20156;-68
2022/03/30 05:54:39;;;;;;;4.03;3.47;;;30.90;90.60;;;;;;4164704;28;20037;-67
2022/03/30 05:59:03;;;;;;;6.35;3.90;;;31.10;90.30;;;;;;4163895;28;20059;-68
2022/03/30 06:01:14;;;;;;;6.13;3.95;;;31.30;90.30;;;;;;4163707;28;20118;-68
2022/03/30 06:03:23;;;;;;;4.47;3.78;;;31.30;90.20;;;;;;4164318;28;20041;-69
2022/03/30 06:05:29;;;;;;;5.63;3.80;;;31.40;90.20;;;;;;4162656;28;20084;-68
2022/03/30 06:07:36;;;;;;;4.72;4.22;;;31.40;90.40;;;;;;4164022;28;20068;-68
2022/03/30 06:09:43;;;;;;;5.00;4.30;;;31.50;90.60;;;;;;4111393;28;20055;-67
2022/03/30 06:11:51;;;;;;;4.38;3.97;;;31.60;90.60;;;;;;4162901;28;20088;-68
2022/03/30 06:14:00;;;;;;;5.13;3.92;;;31.50;90.20;;;;;;4164142;28;20523;-70
2022/03/30 06:16:08;;;;;;;5.18;4.03;;;31.50;90.40;;;;;;4128827;28;20054;-69
2022/03/30 06:18:13;;;;;;;5.25;3.72;;;31.60;90.30;;;;;;4163828;28;20045;-69
2022/03/30 06:20:24;;;;;;;4.35;3.92;;;31.40;89.90;;;;;;4162474;28;20092;-69
2022/03/30 06:22:31;;;;;;;4.68;3.78;;;31.40;90.80;;;;;;4163792;28;20144;-69
2022/03/30 06:24:37;;;;;;;3.90;3.50;;;31.40;90.20;;;;;;4162420;28;20050;-69
2022/03/30 06:26:44;;;;;;;4.60;3.50;;;31.50;90.70;;;;;;4163747;28;20095;-68
2022/03/30 06:28:54;;;;;;;7.18;3.90;;;31.60;90.80;;;;;;4164189;28;20076;-68
2022/03/30 06:30:58;;;;;;;7.70;4.47;;;31.60;90.70;;;;;;4164342;28;20572;-67
2022/03/30 06:33:09;;;;;;;6.10;4.15;;;31.80;90.40;;;;;;4165217;28;20152;-68
2022/03/30 06:35:19;;;;;;;4.93;4.13;;;31.60;89.40;;;;;;4164069;28;20095;-67
2022/03/30 06:37:24;;;;;;;6.72;3.85;;;31.70;89.30;;;;;;4147653;28;20046;-68
2022/03/30 06:39:33;;;;;;;5.10;4.00;;;31.70;88.10;;;;;;4147926;28;20555;-68
2022/03/30 06:41:46;;;;;;;5.10;3.90;;;31.70;88.00;;;;;;4158087;28;20099;-68
2022/03/30 06:43:51;;;;;;;6.85;3.78;;;31.70;87.90;;;;;;4163739;28;20681;-68
2022/03/30 06:46:00;;;;;;;5.13;4.38;;;31.80;88.10;;;;;;4163162;28;20041;-68
2022/03/30 06:48:08;;;;;;;5.50;3.80;;;31.80;87.70;;;;;;4144419;28;20053;-67
2022/03/30 06:50:17;;;;;;;6.30;4.18;;;31.70;87.90;;;;;;4163445;28;20045;-67
2022/03/30 06:52:26;;;;;;;5.32;3.88;;;31.70;88.00;;;;;;4163469;28;20045;-67
2022/03/30 06:54:34;;;;;;;5.65;4.00;;;31.70;87.90;;;;;;4163536;28;20136;-67
2022/03/30 06:56:39;;;;;;;5.80;4.22;;;31.70;87.40;;;;;;4162967;28;20052;-66
2022/03/30 06:58:46;;;;;;;6.90;3.35;;;31.70;87.60;;;;;;4163319;28;20060;-68
2022/03/30 07:00:53;;;;;;;5.05;3.30;;;31.70;87.00;;;;;;4163142;28;20038;-67
2022/03/30 07:02:58;;;;;;;6.10;3.30;;;31.70;87.50;;;;;;4163718;28;20049;-67
2022/03/30 07:05:06;;;;;;;4.15;3.40;;;31.70;86.70;;;;;;4162846;28;20053;-68
2022/03/30 07:11:49;;;;;;;4.05;3.05;;;31.70;86.30;;;;;;4162273;28;20054;-67
2022/03/30 07:13:57;;;;;;;6.28;2.92;;;31.90;86.10;;;;;;4163489;28;20145;-68
2022/03/30 07:16:02;;;;;;;3.78;3.15;;;32.00;85.30;;;;;;4163211;28;20805;-68
2022/03/30 07:18:10;;;;;;;4.40;3.10;;;32.00;84.40;;;;;;4163275;28;20054;-68
2022/03/30 07:20:19;;;;;;;3.10;2.80;;;32.00;85.00;;;;;;4163409;28;20046;-68
2022/03/30 07:22:27;;;;;;;4.47;3.30;;;31.90;84.30;;;;;;4161447;28;20073;-67
2022/03/30 07:24:33;;;;;;;3.83;3.13;;;31.90;85.20;;;;;;4163008;28;20443;-68
2022/03/30 07:26:41;;;;;;;4.72;2.90;;;32.00;85.00;;;;;;4162399;28;20067;-68
2022/03/30 07:28:45;;;;;;;3.20;2.80;;;32.00;85.20;;;;;;4162197;28;20053;-68
2022/03/30 07:30:59;;;;;;;3.37;2.77;;;32.00;85.50;;;;;;4159713;28;20053;-67
2022/03/30 07:33:07;;;;;;;3.75;2.63;;;31.90;84.50;;;;;;4185343;28;20091;-67
2022/03/30 07:35:14;;;;;;;3.83;3.00;;;31.90;84.60;;;;;;4162491;28;20480;-67
2022/03/30 07:37:21;;;;;;;4.25;2.70;;;32.00;84.40;;;;;;4162964;28;20045;-67
2022/03/30 07:39:29;;;;;;;4.20;3.28;;;32.00;84.00;;;;;;4177836;28;20045;-67
2022/03/30 07:41:36;;;;;;;3.95;2.95;;;32.00;85.00;;;;;;4147925;28;20050;-68
2022/03/30 07:43:45;;;;;;;3.92;3.10;;;32.10;85.10;;;;;;4163479;28;20812;-67
2022/03/30 07:45:53;;;;;;;4.85;2.90;;;32.00;84.90;;;;;;4160777;28;20056;-67
2022/03/30 07:47:58;;;;;;;3.45;2.50;;;32.00;84.70;;;;;;4161863;28;20493;-68
2022/03/30 07:50:06;;;;;;;3.88;2.90;;;32.00;84.00;;;;;;4161365;28;20057;-68
2022/03/30 07:52:13;;;;;;;3.95;2.60;;;32.00;84.20;;;;;;4162258;28;20520;-68
2022/03/30 07:54:17;;;;;;;4.45;3.00;;;32.00;84.00;;;;;;4163040;28;20110;-68
2022/03/30 07:56:25;;;;;;;4.70;2.58;;;32.00;84.00;;;;;;4161990;28;20072;-68
2022/03/30 07:58:32;;;;;;;3.40;2.85;;;32.10;83.90;;;;;;4161078;28;20049;-67
2022/03/30 08:00:37;;;;;;;6.53;3.10;;;32.10;84.60;;;;;;4162810;28;20578;-67
2022/03/30 08:02:47;;;;;;;3.88;2.80;;;32.10;84.40;;;;;;4162711;28;20053;-67
2022/03/30 08:04:54;;;;;;;4.28;2.47;;;32.20;84.00;;;;;;4162049;28;20114;-67
2022/03/30 08:07:05;;;;;;;4.65;3.00;;;32.20;84.50;;;;;;4161885;28;20049;-67
2022/03/30 08:09:12;;;;;;;3.00;2.58;;;32.30;84.70;;;;;;4161142;28;20045;-68
2022/03/30 08:11:27;;;;;;;3.67;3.08;;;32.20;83.90;;;;;;4162081;28;20096;-68
2022/03/30 08:13:47;;;;;;;3.78;2.50;;;32.20;83.80;;;;;;4161980;28;20049;-68
2022/03/30 08:15:54;;;;;;;4.38;2.70;;;32.10;83.90;;;;;;4161695;28;20556;-68
2022/03/30 08:18:02;;;;;;;4.65;2.90;;;32.10;84.30;;;;;;4162306;28;20042;-68
2022/03/30 08:20:11;;;;;;;7.00;3.45;;;32.20;84.30;;;;;;4162368;28;20045;-67
2022/03/30 08:22:28;;;;;;;4.75;3.25;;;32.20;83.40;;;;;;4161128;28;20048;-67
2022/03/30 08:24:39;;;;;;;3.88;2.95;;;32.10;83.00;;;;;;4162358;28;20080;-68
2022/03/30 08:26:46;;;;;;;6.38;2.97;;;32.00;82.80;;;;;;4162928;28;20463;-68
2022/03/30 08:28:52;;;;;;;4.70;3.05;;;32.00;83.90;;;;;;4162227;28;20049;-68
2022/03/30 08:31:00;;;;;;;5.47;3.42;;;32.10;83.10;;;;;;4163732;28;20053;-68
2022/03/30 08:33:12;;;;;;;5.10;3.15;;;32.00;83.40;;;;;;4161518;28;20041;-68
2022/03/30 08:35:25;;;;;;;8.65;3.55;;;32.00;83.60;;;;;;4161405;28;20388;-68
2022/03/30 08:37:34;;;;;;;4.07;3.40;;;32.00;82.50;;;;;;4160174;28;20049;-67
2022/03/30 08:39:42;;;;;;;5.55;3.22;;;32.00;83.00;;;;;;4162460;28;20045;-66
2022/03/30 08:41:49;;;;;;;4.47;3.80;;;32.00;83.00;;;;;;4162228;28;20052;-68
2022/03/30 08:43:58;;;;;;;7.97;4.55;;;32.00;83.10;;;;;;4162044;28;20045;-67
2022/03/30 08:46:14;;;;;;;6.15;3.95;;;31.90;83.90;;;;;;4145368;28;20121;-67
2022/03/30 08:48:22;;;;;;;9.27;4.50;;;31.90;83.80;;;;;;4161620;28;20045;-68
2022/03/30 08:50:35;;;;;;;5.10;3.78;;;31.80;83.10;;;;;;4161831;28;20050;-68
2022/03/30 08:52:49;;;;;;;7.00;4.72;;;31.80;84.20;;;;;;4161962;28;20165;-68
2022/03/30 08:54:56;;;;;;;9.75;6.28;;;31.90;84.80;;;;;;4161671;28;20537;-68
2022/03/30 08:57:05;;;;;;;7.45;5.32;;;31.80;85.30;;;;;;4160895;28;20053;-67
2022/03/30 08:59:17;;;;;;;5.25;4.15;;;31.80;86.10;;;;;;4161610;28;20128;-68
2022/03/30 09:01:25;;;;;;;8.10;3.95;;;32.00;84.30;;;;;;4161760;28;20404;-67
2022/03/30 09:03:54;;;;;;;5.05;3.75;;;32.00;83.10;;;;;;4161613;28;20057;-68
2022/03/30 09:06:07;;;;;;;4.10;3.42;;;31.90;83.70;;;;;;4141122;28;20060;-68
2022/03/30 09:08:25;;;;;;;5.38;4.10;;;31.90;84.20;;;;;;4142894;28;20057;-68
2022/03/30 09:10:35;;;;;;;10.35;6.95;;;31.90;84.70;;;;;;4142472;28;20058;-68
2022/03/30 09:12:44;;;;;;;8.30;5.88;;;31.90;84.70;;;;;;4143466;28;20056;-67
2022/03/30 09:14:49;;;;;;;8.07;5.80;;;31.80;85.10;;;;;;4142272;28;20062;-67
2022/03/30 09:17:18;;;;;;;8.38;5.22;;;31.70;85.60;;;;;;4084035;29;20047;-67
2022/03/30 09:19:28;;;;;;;6.25;4.70;;;31.80;85.70;;;;;;4078922;29;20048;-67
2022/03/30 09:21:58;;;;;;;10.57;6.00;;;31.90;84.20;;;;;;4078329;29;20067;-67
2022/03/30 09:24:09;;;;;;;6.18;4.88;;;31.90;85.40;;;;;;4077803;29;20051;-67
2022/03/30 09:26:26;;;;;;;7.05;4.97;;;31.80;85.00;;;;;;4078616;29;20138;-67
2022/03/30 09:28:32;;;;;;;5.68;4.00;;;31.70;86.40;;;;;;4089233;29;20070;-67
2022/03/30 09:30:42;;;;;;;6.38;4.30;;;31.80;86.30;;;;;;4065247;29;20702;-67
2022/03/30 09:32:52;;;;;;;5.60;4.40;;;31.80;86.40;;;;;;4064133;29;20423;-67
2022/03/30 09:35:25;;;;;;;5.63;4.40;;;31.80;85.70;;;;;;4063204;29;20056;-67
2022/03/30 09:37:32;;;;;;;4.93;4.43;;;31.80;85.20;;;;;;4075672;29;20055;-67
2022/03/30 09:39:38;;;;;;;6.60;4.65;;;31.70;85.40;;;;;;4078530;29;20059;-68
2022/03/30 09:41:48;;;;;;;5.72;4.90;;;31.70;85.20;;;;;;4078735;29;20107;-68
2022/03/30 09:44:03;;;;;;;7.55;4.95;;;31.70;84.60;;;;;;4078595;29;20527;-68
2022/03/30 09:46:17;;;;;;;7.72;4.95;;;31.60;84.80;;;;;;4078631;29;20056;-67
2022/03/30 09:48:24;;;;;;;6.13;5.40;;;31.60;83.90;;;;;;4102044;28;20054;-67
2022/03/30 09:50:31;;;;;;;6.20;4.97;;;31.70;82.80;;;;;;4126216;28;20062;-68
2022/03/30 09:52:38;;;;;;;5.35;4.85;;;31.60;82.50;;;;;;4125995;28;20050;-67
2022/03/30 09:54:59;;;;;;;6.85;5.13;;;31.60;83.50;;;;;;4110438;28;20070;-66
2022/03/30 09:57:12;;;;;;;5.80;5.03;;;31.60;83.70;;;;;;4110852;28;20058;-67
2022/03/30 09:59:24;;;;;;;9.15;5.25;;;31.60;84.90;;;;;;4125278;28;20056;-67
2022/03/30 10:01:34;;;;;;;7.18;5.53;;;31.50;85.20;;;;;;4142142;28;20077;-67
2022/03/30 10:03:52;;;;;;;6.38;5.00;;;31.50;84.60;;;;;;4152856;28;20658;-68
2022/03/30 10:06:03;;;;;;;6.85;5.63;;;31.50;85.50;;;;;;4175173;28;20059;-68
2022/03/30 10:08:12;;;;;;;6.80;5.43;;;31.40;86.30;;;;;;4175727;28;20603;-67
2022/03/30 10:10:20;;;;;;;10.57;5.70;;;31.40;86.90;;;;;;4125398;28;20050;-66
2022/03/30 10:12:38;;;;;;;6.18;5.32;;;31.40;87.20;;;;;;4142768;28;20046;-66
2022/03/30 10:14:45;;;;;;;9.23;6.78;;;31.50;86.40;;;;;;4141444;28;20069;-68
2022/03/30 10:16:50;;;;;;;10.77;7.55;;;31.40;86.40;;;;;;4126386;28;20069;-67
2022/03/30 10:18:58;;;;;;;10.52;7.90;;;31.40;86.60;;;;;;4142964;28;20054;-67
2022/03/30 10:21:24;;;;;;;8.23;6.78;;;31.40;87.10;;;;;;4142524;28;20058;-68
2022/03/30 10:23:48;;;;;;;8.05;6.32;;;31.40;86.90;;;;;;4142721;28;20084;-69
2022/03/30 10:26:09;;;;;;;9.40;5.82;;;31.30;86.90;;;;;;4109543;28;20763;-68
2022/03/30 10:28:23;;;;;;;7.50;6.32;;;31.30;87.30;;;;;;4125334;28;20055;-68
2022/03/30 10:30:32;;;;;;;8.70;6.20;;;31.20;86.90;;;;;;4133956;28;20145;-68
2022/03/30 10:32:39;;;;;;;7.78;6.55;;;31.10;87.60;;;;;;4110147;28;20114;-68
2022/03/30 10:35:05;;;;;;;10.32;6.78;;;31.10;87.70;;;;;;4127608;28;20517;-68
2022/03/30 10:37:12;;;;;;;7.80;6.60;;;31.10;88.00;;;;;;4132612;28;20101;-68
2022/03/30 10:39:27;;;;;;;12.05;6.90;;;31.10;88.20;;;;;;4118329;28;20146;-67
2022/03/30 10:41:57;;;;;;;9.13;6.20;;;31.10;88.40;;;;;;4142189;28;20119;-68
2022/03/30 10:44:35;;;;;;;8.80;6.55;;;31.00;88.90;;;;;;4147703;28;20049;-68
2022/03/30 10:46:46;;;;;;;9.63;6.57;;;31.00;89.40;;;;;;4147477;28;20574;-67
2022/03/30 10:48:54;;;;;;;9.85;7.45;;;31.00;89.80;;;;;;4131649;28;20050;-67
2022/03/30 10:51:09;;;;;;;7.70;6.90;;;31.00;90.00;;;;;;4146401;28;20054;-67
2022/03/30 10:53:33;;;;;;;8.13;7.00;;;31.00;90.20;;;;;;4148093;28;20054;-68
2022/03/30 10:55:40;;;;;;;9.18;7.30;;;30.90;90.10;;;;;;4146529;28;20086;-67
2022/03/30 10:58:04;;;;;;;13.20;8.85;;;30.90;90.50;;;;;;4147362;28;20054;-67
2022/03/30 11:00:20;;;;;;;13.38;10.13;;;30.80;90.50;;;;;;4146658;28;20046;-67
2022/03/30 11:02:24;;;;;;;;;;;30.80;90.50;;;;;;4147119;28;20038;-67
2022/03/30 11:04:38;;;;;;;10.27;9.07;;;30.80;90.70;;;;;;4160055;28;19925;-67
2022/03/30 11:07:14;;;;;;;11.27;9.27;;;30.80;90.60;;;;;;4164114;28;20053;-67
2022/03/30 11:09:30;;;;;;;13.27;9.02;;;30.80;90.60;;;;;;4165796;28;20049;-67
2022/03/30 11:11:43;;;;;;;11.90;9.68;;;30.80;90.80;;;;;;4164561;28;20061;-67
2022/03/30 11:13:48;;;;;;;12.75;9.20;;;30.80;90.80;;;;;;4165832;28;20132;-67
2022/03/30 11:16:11;;;;;;;14.90;9.93;;;30.70;91.00;;;;;;4163714;28;20053;-67
2022/03/30 11:18:20;;;;;;;16.42;11.50;;;30.60;91.00;;;;;;4165769;28;20060;-67
2022/03/30 11:20:25;;;;;;;17.60;12.23;;;30.60;91.10;;;;;;4163609;28;20117;-67